Time;durP1;ratioP1;P1;durP2;ratioP2;P2;SDS_P1;SDS_P2;PMS_P1;PMS_P2;Temp;Humidity;BMP_temperature;BMP_pressure;BME280_temperature;BME280_humidity;BME280_pressure;Samples;Min_cycle;Max_cycle;Signal;HPM_P1;HPM_P2
2023/10/09 00:00:50;;;;;;;8.40;3.88;;;;;;;14.10;nan;100171.63;4926103;28;20558;-81
2023/10/09 00:03:18;;;;;;;8.10;3.55;;;;;;;14.09;nan;100166.44;4930229;29;20288;-79
2023/10/09 00:08:10;;;;;;;12.57;4.33;;;;;;;14.06;nan;100164.00;4926418;28;20515;-81
2023/10/09 00:10:45;;;;;;;9.43;3.63;;;;;;;14.02;nan;100167.81;4924158;28;20380;-80
2023/10/09 00:13:11;;;;;;;10.30;3.50;;;;;;;14.00;nan;100164.44;4925165;28;20521;-80
2023/10/09 00:15:36;;;;;;;9.07;3.67;;;;;;;13.97;nan;100172.59;4925379;28;20560;-80
2023/10/09 00:18:12;;;;;;;7.43;4.03;;;;;;;13.95;nan;100170.03;4927189;28;20641;-80
2023/10/09 00:20:42;;;;;;;9.75;4.25;;;;;;;13.93;nan;100164.88;4927563;29;20229;-80
2023/10/09 00:23:15;;;;;;;9.43;4.28;;;;;;;13.90;nan;100158.94;4934617;28;20233;-80
2023/10/09 00:28:47;;;;;;;7.85;4.45;;;;;;;13.81;nan;100163.06;4924765;28;20740;-77
2023/10/09 00:31:26;;;;;;;8.15;4.40;;;;;;;13.80;nan;100161.38;4924387;28;20221;-77
2023/10/09 00:33:52;;;;;;;9.90;4.18;;;;;;;13.80;nan;100161.38;4932378;29;20314;-77
2023/10/09 00:36:27;;;;;;;8.98;4.95;;;;;;;13.78;nan;100152.72;4928636;28;20290;-77
2023/10/09 00:38:52;;;;;;;10.20;4.30;;;;;;;13.77;nan;100158.94;4928682;28;20236;-78
2023/10/09 00:41:22;;;;;;;12.60;4.37;;;;;;;13.76;nan;100162.53;4923267;29;20403;-78
2023/10/09 00:43:49;;;;;;;9.38;4.68;;;;;;;13.73;nan;100158.28;4920302;29;20276;-77
2023/10/09 00:48:51;;;;;;;13.73;5.15;;;;;;;13.69;nan;100155.97;4925044;28;20205;-79
2023/10/09 00:51:24;;;;;;;6.80;4.47;;;;;;;13.66;nan;100162.31;4927117;28;20213;-80
2023/10/09 00:54:06;;;;;;;10.75;7.40;;;;;;;13.63;nan;100159.03;4926144;28;20699;-80
2023/10/09 00:56:39;;;;;;;9.68;5.55;;;;;;;13.57;nan;100156.81;4924131;28;20269;-78
2023/10/09 00:59:14;;;;;;;8.98;2.85;;;;;;;13.52;nan;100150.97;4929800;28;20571;-78
2023/10/09 01:01:59;;;;;;;8.00;4.32;;;;;;;13.49;nan;100147.59;4936272;28;20574;-78
2023/10/09 01:04:28;;;;;;;9.52;4.32;;;;;;;13.46;nan;100145.16;4938139;28;20364;-78
2023/10/09 01:09:43;;;;;;;12.73;4.78;;;;;;;13.38;nan;100146.63;4928958;28;20214;-78
2023/10/09 01:12:16;;;;;;;6.63;2.83;;;;;;;13.32;nan;100150.53;4927142;29;20620;-78
2023/10/09 01:14:45;;;;;;;19.05;3.83;;;;;;;13.27;nan;100140.28;4931094;28;20225;-78
2023/10/09 01:17:11;;;;;;;8.45;3.63;;;;;;;13.21;nan;100134.53;4926326;28;20209;-79
2023/10/09 01:19:37;;;;;;;10.93;6.28;;;;;;;13.18;nan;100140.03;4927288;28;20289;-79
2023/10/09 01:22:16;;;;;;;8.97;4.40;;;;;;;13.17;nan;100138.31;4928057;28;20288;-79
2023/10/09 01:24:43;;;;;;;10.20;3.78;;;;;;;13.14;nan;100138.50;4927817;28;20244;-80
2023/10/09 01:27:14;;;;;;;9.15;3.25;;;;;;;13.12;nan;100132.50;4926944;28;20637;-79
2023/10/09 01:29:41;;;;;;;12.75;5.97;;;;;;;13.09;nan;100137.97;4931960;28;20209;-79
2023/10/09 01:32:16;;;;;;;9.25;3.45;;;;;;;13.06;nan;100129.31;4925933;28;20201;-79
2023/10/09 01:34:49;;;;;;;10.80;3.35;;;;;;;13.03;nan;100136.59;4923862;28;20204;-79
2023/10/09 01:37:18;;;;;;;9.43;4.97;;;;;;;13.00;nan;100136.78;4931281;28;20451;-78
2023/10/09 01:39:48;;;;;;;8.10;5.10;;;;;;;12.97;nan;100142.25;4927718;28;20205;-80
2023/10/09 01:42:24;;;;;;;13.00;3.85;;;;;;;12.95;nan;100139.72;4928344;28;20561;-79
2023/10/09 01:44:53;;;;;;;13.15;5.20;;;;;;;12.95;nan;100142.34;4951120;28;20889;-80
2023/10/09 01:47:18;;;;;;;7.53;3.67;;;;;;;12.96;nan;100136.16;4931166;28;20210;-79
2023/10/09 01:49:48;;;;;;;6.33;3.43;;;;;;;12.94;nan;100145.94;4927242;28;20242;-78
2023/10/09 01:52:18;;;;;;;6.63;4.35;;;;;;;12.90;nan;100139.16;4927473;28;20292;-79
2023/10/09 01:54:49;;;;;;;6.50;3.28;;;;;;;12.88;nan;100135.81;4925029;28;20205;-80
2023/10/09 01:57:16;;;;;;;7.53;3.90;;;;;;;12.84;nan;100131.66;4932385;28;20213;-79
2023/10/09 01:59:43;;;;;;;8.32;3.85;;;;;;;12.77;nan;100133.84;4922966;29;20208;-78
2023/10/09 02:07:44;;;;;;;12.13;4.70;;;;;;;12.73;nan;100128.88;4929757;28;20456;-79
2023/10/09 02:10:21;;;;;;;8.70;4.45;;;;;;;12.76;nan;100124.25;4925949;29;20813;-78
2023/10/09 02:12:57;;;;;;;6.90;4.85;;;;;;;12.79;nan;100128.47;4925206;28;20213;-78
2023/10/09 02:15:41;;;;;;;6.20;3.80;;;;;;;12.79;nan;100128.47;4937423;28;20255;-80
2023/10/09 02:23:30;;;;;;;7.78;3.60;;;;;;;12.79;nan;100118.75;4927956;28;20214;-80
2023/10/09 02:25:57;;;;;;;9.30;4.10;;;;;;;12.79;nan;100118.75;4925933;28;20291;-80
2023/10/09 02:28:23;;;;;;;12.13;4.05;;;;;;;12.74;nan;100120.00;4927841;28;20763;-80
2023/10/09 02:30:48;;;;;;;5.07;3.57;;;;;;;12.70;nan;100118.53;4932145;28;20201;-79
2023/10/09 02:33:30;;;;;;;7.57;3.47;;;;;;;12.69;nan;100116.81;4927560;29;20204;-79
2023/10/09 02:36:04;;;;;;;8.88;4.28;;;;;;;12.66;nan;100117.03;4942385;28;20185;-79
2023/10/09 02:38:33;;;;;;;8.02;3.63;;;;;;;12.59;nan;100117.41;4959551;23;21166;-75
2023/10/09 02:43:34;;;;;;;6.40;3.65;;;;;;;12.52;nan;100117.91;4910324;29;20273;-75
2023/10/09 02:46:12;;;;;;;13.20;4.35;;;;;;;12.52;nan;100116.09;4918408;29;20832;-76
2023/10/09 02:48:42;;;;;;;14.40;4.10;;;;;;;12.53;nan;100109.03;4918429;29;20202;-75
2023/10/09 02:51:16;;;;;;;6.43;3.97;;;;;;;12.51;nan;100109.16;4917588;29;20297;-75
2023/10/09 02:53:41;;;;;;;8.23;4.00;;;;;;;12.50;nan;100107.47;4917833;29;20186;-75
2023/10/09 02:56:12;;;;;;;7.10;2.83;;;;;;;12.48;nan;100109.34;4920119;29;20205;-75
2023/10/09 02:58:42;;;;;;;9.50;3.40;;;;;;;12.44;nan;100107.84;4920058;29;20288;-76
2023/10/09 03:01:13;;;;;;;8.48;4.60;;;;;;;12.40;nan;100103.72;4921194;29;20265;-75
2023/10/09 03:03:50;;;;;;;4.45;2.80;;;;;;;12.38;nan;100097.69;4912118;29;21017;-75
2023/10/09 03:06:24;;;;;;;9.73;4.07;;;;;;;12.37;nan;100098.66;4934284;28;20484;-76
2023/10/09 03:08:50;;;;;;;9.45;3.92;;;;;;;12.38;nan;100102.97;4916700;29;20755;-75
2023/10/09 03:11:16;;;;;;;8.07;3.50;;;;;;;12.37;nan;100101.28;4916504;29;20249;-75
2023/10/09 03:13:45;;;;;;;5.10;3.10;;;;;;;12.34;nan;100101.47;4914907;29;20251;-75
2023/10/09 03:16:20;;;;;;;7.10;3.78;;;;;;;12.32;nan;100096.31;4915988;29;20206;-75
2023/10/09 03:18:46;;;;;;;5.75;3.30;;;;;;;12.28;nan;100102.69;4916773;29;20201;-75
2023/10/09 03:21:14;;;;;;;6.40;2.90;;;;;;;12.21;nan;100095.31;4914462;29;20554;-75
2023/10/09 03:23:40;;;;;;;8.75;4.47;;;;;;;12.14;nan;100100.09;4897068;29;20210;-75
2023/10/09 03:26:07;;;;;;;16.67;4.45;;;;;;;12.08;nan;100101.31;4918170;29;20205;-75
2023/10/09 03:28:33;;;;;;;10.60;4.40;;;;;;;12.07;nan;100104.03;4915166;29;20301;-75
2023/10/09 03:31:02;;;;;;;7.60;3.50;;;;;;;12.08;nan;100103.09;4920055;29;20296;-75
2023/10/09 03:33:28;;;;;;;6.60;3.47;;;;;;;12.09;nan;100105.63;4917231;29;20218;-75
2023/10/09 03:35:55;;;;;;;9.80;4.17;;;;;;;12.10;nan;100109.97;4916184;29;20689;-76
2023/10/09 03:38:20;;;;;;;7.03;4.57;;;;;;;12.11;nan;100102.91;4915684;29;20250;-75
2023/10/09 03:40:47;;;;;;;10.20;3.67;;;;;;;12.11;nan;100105.56;4917377;29;20304;-75
2023/10/09 03:43:14;;;;;;;13.23;4.20;;;;;;;12.11;nan;100098.50;4915236;29;20316;-75
2023/10/09 03:45:52;;;;;;;14.52;4.22;;;;;;;12.11;nan;100105.56;4918376;29;20201;-75
2023/10/09 03:48:32;;;;;;;9.77;3.75;;;;;;;12.04;nan;100099.81;4917719;28;20197;-76
2023/10/09 03:51:20;;;;;;;7.45;5.25;;;;;;;11.97;nan;100103.78;4915375;29;20392;-75
2023/10/09 03:53:50;;;;;;;18.00;8.27;;;;;;;11.94;nan;100101.34;4916454;29;20684;-75
2023/10/09 03:56:17;;;;;;;16.55;8.23;;;;;;;11.96;nan;100104.69;4917907;29;20753;-76
2023/10/09 03:58:47;;;;;;;13.23;7.40;;;;;;;11.93;nan;100108.34;4918181;29;20748;-76
2023/10/09 04:01:38;;;;;;;18.65;7.40;;;;;;;11.92;nan;100111.09;4915519;29;20205;-75
2023/10/09 04:04:06;;;;;;;13.85;6.95;;;;;;;11.95;nan;100110.91;4914442;29;20240;-75
2023/10/09 04:06:33;;;;;;;10.95;6.57;;;;;;;12.01;nan;100112.31;4916056;29;20473;-75
2023/10/09 04:11:49;;;;;;;12.07;4.45;;;;;;;12.04;nan;100106.84;4913511;29;20229;-75
2023/10/09 04:14:32;;;;;;;11.98;5.15;;;;;;;12.03;nan;100089.38;4914488;29;20434;-75
2023/10/09 04:17:05;;;;;;;6.07;4.85;;;;;;;12.02;nan;100096.44;4917217;29;20225;-75
2023/10/09 04:19:38;;;;;;;11.07;3.83;;;;;;;12.03;nan;100097.28;4918210;29;20584;-76
2023/10/09 04:22:07;;;;;;;8.75;3.92;;;;;;;12.03;nan;100092.84;4915007;29;20202;-75
2023/10/09 04:24:41;;;;;;;8.00;3.88;;;;;;;11.99;nan;100091.38;4920363;29;20284;-75
2023/10/09 04:27:08;;;;;;;7.10;3.70;;;;;;;11.90;nan;100105.06;4921598;29;20448;-76
2023/10/09 04:29:39;;;;;;;9.93;5.07;;;;;;;11.79;nan;100102.22;4919139;29;20672;-77
2023/10/09 04:32:15;;;;;;;13.77;3.95;;;;;;;11.76;nan;100105.88;4922288;29;20731;-76
2023/10/09 04:34:48;;;;;;;7.18;3.38;;;;;;;11.78;nan;100100.53;4923236;29;20242;-76
2023/10/09 04:37:24;;;;;;;6.00;3.35;;;;;;;11.81;nan;100105.63;4922686;29;20821;-76
2023/10/09 04:40:11;;;;;;;9.88;3.80;;;;;;;11.84;nan;100108.91;4921932;29;20236;-76
2023/10/09 04:42:36;;;;;;;11.52;4.50;;;;;;;11.87;nan;100094.75;4917174;29;20217;-75
2023/10/09 04:47:35;;;;;;;14.63;5.82;;;;;;;11.83;nan;100091.44;4921082;29;20355;-76
2023/10/09 05:03:11;;;;;;;7.60;4.22;;;;;;;11.87;nan;100089.47;4921673;29;20213;-76
2023/10/09 05:08:21;;;;;;;4.78;3.58;;;;;;;11.83;nan;100090.59;4914212;29;20197;-76
2023/10/09 05:16:15;;;;;;;7.55;4.50;;;;;;;11.84;nan;100092.25;4917422;29;20204;-76
2023/10/09 05:18:41;;;;;;;10.68;4.45;;;;;;;11.85;nan;100086.88;4913178;29;20544;-76
2023/10/09 05:23:48;;;;;;;9.77;4.20;;;;;;;11.85;nan;100093.94;4912879;29;20352;-76
2023/10/09 05:29:18;;;;;;;9.10;5.47;;;;;;;11.78;nan;100104.00;4912806;29;20206;-75
2023/10/09 05:31:55;;;;;;;8.65;4.45;;;;;;;11.76;nan;100105.03;4916807;29;20269;-76
2023/10/09 05:34:21;;;;;;;7.57;4.95;;;;;;;11.72;nan;100105.25;4913597;29;20194;-76
2023/10/09 05:36:47;;;;;;;9.10;5.78;;;;;;;11.66;nan;100107.38;4911782;29;20453;-75
2023/10/09 05:41:59;;;;;;;12.38;4.57;;;;;;;11.63;nan;100107.56;4914765;29;20683;-76
2023/10/09 05:53:04;;;;;;;7.57;4.80;;;;;;;11.75;nan;100122.63;4914909;29;20304;-75
2023/10/09 06:03:53;;;;;;;6.43;5.25;;;;;;;11.86;nan;100135.16;4912965;29;20257;-76
2023/10/09 06:19:48;;;;;;;10.63;4.72;;;;;;;12.21;nan;100146.19;4915089;29;20594;-75
2023/10/09 06:25:08;;;;;;;9.30;6.65;;;;;;;12.33;nan;100158.56;4913763;29;20240;-76
2023/10/09 06:35:30;;;;;;;9.63;4.70;;;;;;;12.49;nan;100173.44;4916959;29;20207;-76
2023/10/09 06:51:12;;;;;;;13.10;4.93;;;;;;;12.78;nan;100184.78;4918531;29;20233;-77
2023/10/09 06:59:16;;;;;;;11.75;3.95;;;;;;;12.88;nan;100180.63;4917175;29;20213;-77
2023/10/09 07:01:42;;;;;;;9.90;4.78;;;;;;;12.93;nan;100182.94;4916177;29;20197;-76
2023/10/09 07:04:18;;;;;;;8.30;5.13;;;;;;;12.98;nan;100188.78;4918367;29;20260;-77
2023/10/09 07:06:56;;;;;;;11.15;6.10;;;;;;;13.05;nan;100193.56;4918900;29;20545;-77
2023/10/09 07:09:22;;;;;;;9.35;4.47;;;;;;;13.13;nan;100184.31;4916871;29;20280;-77
2023/10/09 07:16:57;;;;;;;13.45;6.03;;;;;;;13.36;nan;100181.03;4913298;29;20276;-77
2023/10/09 07:25:16;;;;;;;9.20;5.78;;;;;;;13.67;nan;100184.28;4908453;29;20217;-77
2023/10/09 07:27:44;;;;;;;9.75;5.10;;;;;;;13.82;nan;100185.84;4913832;29;20700;-77
2023/10/09 07:38:20;;;;;;;6.90;3.78;;;;;;;14.65;nan;100198.63;4915368;29;20680;-77
2023/10/09 07:41:33;;;;;;;6.28;3.75;;;;;;;14.89;nan;100187.28;4916471;29;20648;-77
2023/10/09 07:43:45;;;;;;;7.18;4.20;;;;;;;15.05;nan;100190.47;4913937;29;20720;-77
2023/10/09 07:49:08;;;;;;;9.20;4.97;;;;;;;15.31;nan;100193.00;4911486;29;22819;-77
2023/10/09 07:51:35;;;;;;;9.13;3.67;;;;;;;15.40;nan;100192.34;4918828;29;20286;-77
2023/10/09 07:54:07;;;;;;;8.90;3.63;;;;;;;15.47;nan;100189.13;4915739;29;20546;-77
2023/10/09 07:56:45;;;;;;;6.32;4.10;;;;;;;15.57;nan;100191.91;4913952;29;20205;-78
2023/10/09 07:59:11;;;;;;;10.18;4.10;;;;;;;15.71;nan;100188.25;4908868;29;20205;-77
2023/10/09 08:01:52;;;;;;;7.20;4.22;;;;;;;15.99;nan;100191.47;4909871;29;20875;-77
2023/10/09 08:04:37;;;;;;;11.18;4.50;;;;;;;16.64;nan;100185.44;4915576;29;20688;-77
2023/10/09 08:07:07;;;;;;;6.18;3.40;;;;;;;17.16;nan;100188.38;4914240;29;20516;-77
2023/10/09 08:09:46;;;;;;;8.40;3.45;;;;;;;17.40;nan;100188.19;4915187;29;20218;-77
2023/10/09 08:15:20;;;;;;;6.25;4.50;;;;;;;18.07;nan;100184.34;4917056;29;20701;-78
2023/10/09 08:18:09;;;;;;;7.25;3.92;;;;;;;18.62;nan;100186.66;4912101;29;20211;-77
2023/10/09 08:23:29;;;;;;;12.77;5.40;;;;;;;19.54;nan;100175.75;5582522;23;20238;-79
2023/10/09 08:26:15;;;;;;;5.77;4.23;;;;;;;19.95;nan;100173.72;4912849;29;20925;-77
2023/10/09 08:28:45;;;;;;;17.77;5.20;;;;;;;20.41;nan;100167.53;4914242;29;20497;-78
2023/10/09 08:31:19;;;;;;;7.70;3.83;;;;;;;21.16;nan;100159.38;4914744;29;20441;-78
2023/10/09 08:33:58;;;;;;;9.67;2.97;;;;;;;21.99;nan;100161.75;4914173;29;20465;-80
2023/10/09 08:36:28;;;;;;;10.33;4.13;;;;;;;22.87;nan;100156.13;4912168;29;20960;-78
2023/10/09 08:39:01;;;;;;;6.83;4.27;;;;;;;23.59;nan;100151.88;4916075;29;20459;-78
2023/10/09 08:41:30;;;;;;;4.73;3.37;;;;;;;24.35;nan;100152.41;4915778;29;20518;-78
2023/10/09 08:43:57;;;;;;;12.33;4.43;;;;;;;25.00;nan;100139.66;4911709;29;20811;-78
2023/10/09 08:46:27;;;;;;;7.10;3.17;;;;;;;25.60;nan;100141.59;4913676;29;20923;-80
2023/10/09 08:48:58;;;;;;;11.00;5.07;;;;;;;26.17;nan;100132.97;4914154;29;21167;-79
2023/10/09 08:51:29;;;;;;;12.23;3.47;;;;;;;26.75;nan;100135.75;4915288;29;21453;-79
2023/10/09 08:53:56;;;;;;;6.90;4.57;;;;;;;27.19;nan;100131.25;4913712;29;21030;-78
2023/10/09 08:56:22;;;;;;;10.63;4.07;;;;;;;27.50;nan;100136.31;4911818;29;20986;-80
2023/10/09 08:58:58;;;;;;;10.60;4.13;;;;;;;27.77;nan;100126.56;4912916;29;20447;-79
2023/10/09 09:01:24;;;;;;;9.00;3.47;;;;;;;27.74;nan;100127.78;4910540;29;20461;-78
2023/10/09 09:03:51;;;;;;;9.53;4.03;;;;;;;27.48;nan;100133.81;4912297;29;20420;-78
2023/10/09 09:06:20;;;;;;;11.83;3.90;;;;;;;27.09;nan;100136.97;4913512;29;20419;-80
2023/10/09 09:08:49;;;;;;;10.03;4.20;;;;;;;26.67;nan;100131.31;4913141;29;20556;-80
2023/10/09 09:11:18;;;;;;;8.70;3.97;;;;;;;26.27;nan;100136.22;4914301;29;20457;-79
2023/10/09 09:13:50;;;;;;;8.03;3.63;;;;;;;25.97;nan;100126.44;4916439;29;20448;-80
2023/10/09 09:16:17;;;;;;;6.57;3.90;;;;;;;25.67;nan;100126.38;4917482;29;20477;-79
2023/10/09 09:19:02;;;;;;;11.30;3.90;;;;;;;25.43;nan;100138.19;4914367;29;20465;-80
2023/10/09 09:21:29;;;;;;;7.00;3.33;;;;;;;25.20;nan;100123.94;4919230;29;20631;-79
2023/10/09 09:24:01;;;;;;;11.87;3.57;;;;;;;25.00;nan;100135.13;4915357;29;20503;-78
2023/10/09 09:26:37;;;;;;;6.57;3.83;;;;;;;24.83;nan;100134.41;4917598;29;20453;-80
2023/10/09 09:29:05;;;;;;;7.87;4.10;;;;;;;24.68;nan;100133.47;4915069;29;20523;-80
2023/10/09 09:31:37;;;;;;;8.43;3.80;;;;;;;24.57;nan;100129.34;4915888;29;20437;-78
2023/10/09 09:34:12;;;;;;;4.10;2.83;;;;;;;24.55;nan;100125.16;4916222;29;21550;-78
2023/10/09 09:36:53;;;;;;;8.40;3.43;;;;;;;24.49;nan;100129.38;4914862;29;20476;-78
2023/10/09 09:39:26;;;;;;;10.07;3.97;;;;;;;24.49;nan;100130.25;4915003;29;20473;-78
2023/10/09 09:41:54;;;;;;;8.77;3.20;;;;;;;24.54;nan;100126.16;4918184;29;20515;-79
2023/10/09 09:44:25;;;;;;;8.27;3.70;;;;;;;24.64;nan;100129.47;4917252;29;21052;-80
2023/10/09 09:46:53;;;;;;;9.50;3.30;;;;;;;24.69;nan;100132.47;4918005;29;20568;-78
2023/10/09 09:49:21;;;;;;;6.43;3.10;;;;;;;24.69;nan;100132.47;4915748;29;21127;-74
2023/10/09 09:51:47;;;;;;;8.73;4.90;;;;;;;24.68;nan;100130.78;4916845;29;20532;-74
2023/10/09 09:54:16;;;;;;;11.20;3.37;;;;;;;24.68;nan;100130.78;4915977;29;20496;-76
2023/10/09 09:56:50;;;;;;;17.43;4.03;;;;;;;24.69;nan;100125.25;4915755;29;20619;-76
2023/10/09 09:59:21;;;;;;;8.87;3.20;;;;;;;24.71;nan;100128.59;4913422;29;20556;-76
2023/10/09 10:01:56;;;;;;;10.10;3.77;;;;;;;24.69;nan;100122.56;4913949;29;21112;-76
2023/10/09 10:04:25;;;;;;;9.77;3.60;;;;;;;24.67;nan;100129.13;4916149;29;20430;-76
2023/10/09 10:06:54;;;;;;;3.00;2.30;;;;;;;24.67;nan;100121.91;4919714;29;20575;-76
2023/10/09 10:09:41;;;;;;;9.93;3.57;;;;;;;24.70;nan;100123.41;4918902;29;20617;-77
2023/10/09 10:12:14;;;;;;;11.13;5.30;;;;;;;24.70;nan;100128.78;4914322;29;20464;-77
2023/10/09 10:14:59;;;;;;;9.90;3.97;;;;;;;24.64;nan;100135.69;4916204;29;20470;-77
2023/10/09 10:17:29;;;;;;;7.27;3.07;;;;;;;24.62;nan;100137.72;4916806;29;20559;-77
2023/10/09 10:22:47;;;;;;;8.73;3.70;;;;;;;24.64;nan;100135.69;4915737;29;20473;-77
2023/10/09 10:25:41;;;;;;;7.90;3.30;;;;;;;24.66;nan;100140.91;4915188;29;20836;-77
2023/10/09 10:28:28;;;;;;;9.80;4.00;;;;;;;24.70;nan;100136.84;4914069;29;20460;-77
2023/10/09 10:30:55;;;;;;;10.40;3.13;;;;;;;24.74;nan;100130.09;4918193;29;20457;-77
2023/10/09 10:33:22;;;;;;;12.70;4.00;;;;;;;24.80;nan;100132.06;4910415;29;20517;-76
2023/10/09 10:38:44;;;;;;;6.00;3.07;;;;;;;24.89;nan;100132.84;4919485;29;20669;-77
2023/10/09 10:41:11;;;;;;;7.73;3.40;;;;;;;24.88;nan;100129.34;4918897;29;20448;-76
2023/10/09 10:46:38;;;;;;;7.27;2.90;;;;;;;24.93;nan;100129.63;4918268;29;20524;-77
2023/10/09 10:49:25;;;;;;;6.07;3.03;;;;;;;24.99;nan;100125.41;4918447;29;20478;-77
2023/10/09 10:52:01;;;;;;;14.30;3.67;;;;;;;25.09;nan;100125.19;4916736;29;20448;-78
2023/10/09 10:56:59;;;;;;;9.13;4.63;;;;;;;25.16;nan;100126.97;4914136;29;20532;-76
2023/10/09 10:59:33;;;;;;;11.90;4.50;;;;;;;25.14;nan;100126.31;4917236;29;20479;-76
2023/10/09 11:07:12;;;;;;;9.65;3.75;;;;;;;25.12;nan;100119.44;4912616;29;20484;-77
2023/10/09 11:15:46;;;;;;;9.13;3.50;;;;;;;25.38;nan;100119.06;4916004;29;20459;-77
2023/10/09 11:18:26;;;;;;;6.47;3.17;;;;;;;25.47;nan;100104.56;4915283;29;20976;-77
2023/10/09 11:23:57;;;;;;;12.37;4.37;;;;;;;25.63;nan;100097.31;4914282;29;20476;-77
2023/10/09 11:26:28;;;;;;;8.90;3.77;;;;;;;25.73;nan;100087.97;4914171;29;20448;-78
2023/10/09 11:32:05;;;;;;;9.43;4.07;;;;;;;25.88;nan;100081.81;4871947;29;20474;-77
2023/10/09 11:34:35;;;;;;;13.23;3.90;;;;;;;25.92;nan;100080.41;4913632;29;20565;-77
2023/10/09 11:37:01;;;;;;;12.57;4.35;;;;;;;25.99;nan;100078.66;4914922;29;20445;-76
2023/10/09 11:39:34;;;;;;;12.33;3.87;;;;;;;26.01;nan;100074.75;4912944;29;20212;-77
2023/10/09 11:42:04;;;;;;;13.20;4.70;;;;;;;26.07;nan;100072.34;4915655;29;20458;-77
2023/10/09 11:44:44;;;;;;;14.70;3.43;;;;;;;26.12;nan;100075.31;4915076;29;20465;-77
2023/10/09 11:52:37;;;;;;;5.37;3.83;;;;;;;26.23;nan;100059.50;4917780;29;20486;-75
2023/10/09 11:55:16;;;;;;;5.43;3.20;;;;;;;26.25;nan;100059.31;4918337;29;20461;-76
2023/10/09 11:57:41;;;;;;;10.27;3.77;;;;;;;26.22;nan;100057.84;4913167;29;20457;-75
2023/10/09 12:00:24;;;;;;;9.07;4.00;;;;;;;26.20;nan;100057.19;4915739;29;21028;-76
2023/10/09 12:02:49;;;;;;;9.00;4.60;;;;;;;26.22;nan;100051.59;4913315;29;20233;-78
2023/10/09 12:05:16;;;;;;;7.93;3.50;;;;;;;26.24;nan;100057.63;4911270;29;20480;-76
2023/10/09 12:07:54;;;;;;;8.50;4.20;;;;;;;26.25;nan;100056.63;4914164;29;20206;-76
2023/10/09 12:10:26;;;;;;;5.63;3.73;;;;;;;26.26;nan;100045.66;4913909;29;20868;-76
2023/10/09 12:12:57;;;;;;;8.83;4.67;;;;;;;26.25;nan;100038.59;4912375;29;20435;-76
2023/10/09 12:15:23;;;;;;;13.07;4.73;;;;;;;26.19;nan;100036.69;4915621;29;20467;-77
2023/10/09 12:17:49;;;;;;;9.23;4.13;;;;;;;26.15;nan;100035.38;4914747;29;20801;-76
2023/10/09 12:20:30;;;;;;;6.90;4.17;;;;;;;26.09;nan;100024.53;4917452;29;20428;-75
2023/10/09 12:23:06;;;;;;;11.60;3.60;;;;;;;26.02;nan;100019.03;4913720;29;20484;-77
2023/10/09 12:25:33;;;;;;;20.40;4.07;;;;;;;25.94;nan;100019.97;4912375;29;20443;-75
2023/10/09 12:28:01;;;;;;;7.73;3.70;;;;;;;25.89;nan;100016.19;4917400;29;20447;-76
2023/10/09 12:30:30;;;;;;;7.87;4.30;;;;;;;25.82;nan;100016.91;4915671;29;20518;-76
2023/10/09 12:32:57;;;;;;;15.47;4.20;;;;;;;25.77;nan;100013.09;4915515;29;20484;-76
2023/10/09 12:35:24;;;;;;;10.20;4.30;;;;;;;25.75;nan;100005.22;4917080;29;20839;-76
2023/10/09 12:37:51;;;;;;;13.03;4.57;;;;;;;25.76;nan;99998.81;4917054;29;20432;-76
2023/10/09 12:40:23;;;;;;;10.07;3.13;;;;;;;25.79;nan;99995.75;4915315;29;20622;-76
2023/10/09 12:42:50;;;;;;;5.60;3.70;;;;;;;25.85;nan;99994.22;4913559;29;20818;-76
2023/10/09 12:45:17;;;;;;;10.33;3.40;;;;;;;25.92;nan;99987.03;4918077;29;20448;-76
2023/10/09 12:47:43;;;;;;;7.53;3.67;;;;;;;25.98;nan;99982.78;4919439;29;20431;-76
2023/10/09 12:50:13;;;;;;;10.80;3.93;;;;;;;26.01;nan;99982.41;4917821;29;20461;-76
2023/10/09 12:52:39;;;;;;;9.70;5.00;;;;;;;26.03;nan;99986.56;4918690;29;20208;-76
2023/10/09 12:55:07;;;;;;;11.00;3.80;;;;;;;26.02;nan;99979.50;4913157;29;20439;-76
2023/10/09 12:57:33;;;;;;;6.73;3.60;;;;;;;26.04;nan;99976.63;4917717;29;21374;-76
2023/10/09 12:59:59;;;;;;;5.90;3.80;;;;;;;26.06;nan;99971.91;4920455;29;20557;-76
2023/10/09 13:02:30;;;;;;;5.70;3.27;;;;;;;26.04;nan;99977.47;4916790;29;20573;-77
2023/10/09 13:05:00;;;;;;;7.93;3.10;;;;;;;26.00;nan;99978.00;4916028;29;20456;-76
2023/10/09 13:07:25;;;;;;;6.10;3.20;;;;;;;25.96;nan;99968.66;4916810;29;20974;-76
2023/10/09 13:10:09;;;;;;;6.77;3.07;;;;;;;25.93;nan;99974.44;4918326;29;20930;-75
2023/10/09 13:12:40;;;;;;;8.30;3.37;;;;;;;25.92;nan;99965.50;4916993;29;20216;-76
2023/10/09 13:15:09;;;;;;;7.40;3.07;;;;;;;25.93;nan;99971.75;4916146;29;20442;-76
2023/10/09 13:17:36;;;;;;;7.43;3.67;;;;;;;25.94;nan;99962.63;4903938;29;20462;-75
2023/10/09 13:20:12;;;;;;;6.90;4.73;;;;;;;25.94;nan;99957.25;4918065;29;20447;-76
2023/10/09 13:22:38;;;;;;;15.60;4.97;;;;;;;25.93;nan;99956.41;4916274;29;20869;-76
2023/10/09 13:25:05;;;;;;;7.30;3.23;;;;;;;25.88;nan;99953.47;4917572;29;20439;-76
2023/10/09 13:27:34;;;;;;;11.30;4.23;;;;;;;25.85;nan;99951.16;4915839;29;20547;-76
2023/10/09 13:30:05;;;;;;;4.77;3.20;;;;;;;25.81;nan;99956.00;4914460;29;20806;-76
2023/10/09 13:32:35;;;;;;;8.23;3.33;;;;;;;25.77;nan;99954.75;4914949;29;20462;-77
2023/10/09 13:35:05;;;;;;;6.03;2.83;;;;;;;25.73;nan;99950.75;4913618;29;20892;-76
2023/10/09 13:37:36;;;;;;;8.50;3.07;;;;;;;25.68;nan;99942.44;4914967;29;20483;-76
2023/10/09 13:40:10;;;;;;;7.13;5.13;;;;;;;25.67;nan;99940.75;4916869;29;20874;-76
2023/10/09 13:42:35;;;;;;;9.37;3.23;;;;;;;25.68;nan;99937.03;4914146;29;20497;-76
2023/10/09 13:45:07;;;;;;;10.93;3.83;;;;;;;25.74;nan;99933.59;4916374;29;21051;-76
2023/10/09 13:47:33;;;;;;;5.43;2.93;;;;;;;25.78;nan;99942.13;4915979;29;20567;-76
2023/10/09 13:50:00;;;;;;;5.27;3.13;;;;;;;25.80;nan;99927.44;4916520;29;20514;-76
2023/10/09 13:52:26;;;;;;;12.60;4.10;;;;;;;25.80;nan;99930.13;4914134;29;20473;-76
2023/10/09 13:54:53;;;;;;;13.70;4.63;;;;;;;25.84;nan;99919.84;4915075;29;20596;-75
2023/10/09 13:57:22;;;;;;;8.00;3.50;;;;;;;25.87;nan;99921.34;4914896;29;20894;-76
2023/10/09 13:59:50;;;;;;;6.60;3.47;;;;;;;25.92;nan;99913.53;4917563;29;20540;-76
2023/10/09 14:02:17;;;;;;;11.17;4.23;;;;;;;25.99;nan;99917.13;4917382;29;20469;-75
2023/10/09 14:04:43;;;;;;;6.80;2.93;;;;;;;26.08;nan;99915.97;4914200;29;21003;-76
2023/10/09 14:10:06;;;;;;;7.10;3.53;;;;;;;26.09;nan;99923.06;5142201;23;20474;-78
2023/10/09 14:12:34;;;;;;;11.70;3.90;;;;;;;26.10;nan;99918.50;4915270;29;20457;-80
2023/10/09 14:15:00;;;;;;;11.23;3.17;;;;;;;26.05;nan;99917.19;4917608;29;20477;-81
2023/10/09 14:17:27;;;;;;;8.23;3.53;;;;;;;26.00;nan;99916.09;4910262;29;20457;-78
2023/10/09 14:19:54;;;;;;;15.70;6.00;;;;;;;25.93;nan;99923.28;4914652;29;20452;-80
2023/10/09 14:22:27;;;;;;;9.17;4.20;;;;;;;25.87;nan;99916.81;4912651;29;20508;-79
2023/10/09 14:24:56;;;;;;;11.60;3.70;;;;;;;25.76;nan;99920.78;4918421;29;20496;-77
2023/10/09 14:27:26;;;;;;;9.77;3.40;;;;;;;25.64;nan;99913.38;4914700;29;21098;-78
2023/10/09 14:29:58;;;;;;;12.60;5.57;;;;;;;25.53;nan;99917.38;4916207;29;23731;-78
2023/10/09 14:32:43;;;;;;;12.23;3.30;;;;;;;25.45;nan;99917.50;4913511;29;20500;-79
2023/10/09 14:35:13;;;;;;;6.80;4.03;;;;;;;25.36;nan;99920.28;4912722;29;20468;-79
2023/10/09 14:37:39;;;;;;;5.67;3.40;;;;;;;25.31;nan;99911.09;4914829;29;20478;-79
2023/10/09 14:40:12;;;;;;;7.33;3.73;;;;;;;25.26;nan;99914.34;4918460;29;20456;-78
2023/10/09 14:42:43;;;;;;;7.77;4.10;;;;;;;25.23;nan;99905.81;4914653;29;20846;-80
2023/10/09 14:45:15;;;;;;;8.67;3.10;;;;;;;25.19;nan;99907.19;4915107;29;20768;-78
2023/10/09 14:47:41;;;;;;;5.67;3.53;;;;;;;25.17;nan;99905.53;4913048;29;20469;-79
2023/10/09 14:50:09;;;;;;;6.57;4.03;;;;;;;25.17;nan;99902.84;4916162;29;20446;-78
2023/10/09 14:52:34;;;;;;;8.33;2.73;;;;;;;25.20;nan;99906.19;4914605;29;20533;-78
2023/10/09 14:55:04;;;;;;;11.20;4.30;;;;;;;25.20;nan;99900.81;4909952;29;20569;-79
2023/10/09 14:57:33;;;;;;;6.93;3.90;;;;;;;25.20;nan;99907.03;4915650;29;20443;-79
2023/10/09 14:59:59;;;;;;;6.27;3.70;;;;;;;25.18;nan;99903.69;4918427;29;20999;-77
2023/10/09 15:02:25;;;;;;;6.33;3.73;;;;;;;25.15;nan;99907.56;4918142;29;20468;-79